Time;durP1;ratioP1;P1;durP2;ratioP2;P2;SDS_P1;SDS_P2;PMS_P1;PMS_P2;Temp;Humidity;BMP_temperature;BMP_pressure;BME280_temperature;BME280_humidity;BME280_pressure;Samples;Min_cycle;Max_cycle;Signal;HPM_P1;HPM_P2
2024/01/22 00:00:32;;;;;;;;;;;;;;;;;;5061197;28;19911;-75
2024/01/22 00:27:42;;;;;;;;;;;;;;;;;;5058241;28;19930;-75
2024/01/22 00:30:08;;;;;;;;;;;;;;;;;;5060580;28;19919;-74
2024/01/22 00:32:35;;;;;;;;;;;;;;;;;;5058635;28;19913;-74
2024/01/22 00:35:02;;;;;;;;;;;;;;;;;;5061111;28;19916;-73
2024/01/22 00:37:30;;;;;;;;;;;;;;;;;;5062894;28;19927;-73
2024/01/22 00:39:57;;;;;;;;;;;;;;;;;;5051928;28;20383;-74
2024/01/22 00:42:25;;;;;;;;;;;;;;;;;;5060877;28;19916;-74
2024/01/22 00:44:53;;;;;;;;;;;;;;;;;;5065002;28;20019;-74
2024/01/22 00:47:19;;;;;;;;;;;;;;;;;;5059068;28;19916;-76
2024/01/22 00:49:45;;;;;;;;;;;;;;;;;;5060942;28;19942;-75
2024/01/22 00:52:12;;;;;;;;;;;;;;;;;;5054428;28;19916;-75
2024/01/22 00:54:38;;;;;;;;;;;;;;;;;;5048297;28;19912;-75
2024/01/22 00:57:05;;;;;;;;;;;;;;;;;;5052202;28;19977;-75
2024/01/22 00:59:32;;;;;;;;;;;;;;;;;;5063878;28;19907;-75
2024/01/22 01:01:58;;;;;;;;;;;;;;;;;;5066272;28;19977;-76
2024/01/22 01:04:26;;;;;;;;;;;;;;;;;;5047000;28;20023;-74
2024/01/22 01:06:53;;;;;;;;;;;;;;;;;;5051910;28;19928;-74
2024/01/22 01:09:21;;;;;;;;;;;;;;;;;;5064599;28;19969;-76
2024/01/22 01:11:50;;;;;;;;;;;;;;;;;;5067053;28;19916;-74
2024/01/22 01:14:17;;;;;;;;;;;;;;;;;;5053132;28;19911;-75
2024/01/22 01:16:44;;;;;;;;;;;;;;;;;;5069312;28;20273;-75
2024/01/22 01:19:11;;;;;;;;;;;;;;;;;;5052463;28;20494;-74
2024/01/22 01:21:39;;;;;;;;;;;;;;;;;;5064620;28;19969;-75
2024/01/22 01:24:06;;;;;;;;;;;;;;;;;;5053922;28;19911;-73
2024/01/22 01:26:33;;;;;;;;;;;;;;;;;;5067004;28;20370;-75
2024/01/22 01:28:59;;;;;;;;;;;;;;;;;;5068965;28;19922;-75
2024/01/22 01:31:28;;;;;;;;;;;;;;;;;;5068551;28;19918;-74
2024/01/22 01:34:04;;;;;;;;;;;;;;;;;;5070436;28;20447;-75
2024/01/22 01:36:32;;;;;;;;;;;;;;;;;;5066276;28;20475;-75
2024/01/22 01:38:59;;;;;;;;;;;;;;;;;;5067258;28;19912;-74
2024/01/22 01:41:27;;;;;;;;;;;;;;;;;;5051880;28;19908;-74
2024/01/22 01:43:54;;;;;;;;;;;;;;;;;;5070416;28;19962;-74
2024/01/22 01:46:21;;;;;;;;;;;;;;;;;;5053267;28;19923;-74
2024/01/22 01:48:49;;;;;;;;;;;;;;;;;;5071064;28;20659;-73
2024/01/22 01:51:16;;;;;;;;;;;;;;;;;;5075147;28;19912;-74
2024/01/22 01:53:44;;;;;;;;;;;;;;;;;;5058698;28;20429;-74
2024/01/22 01:56:11;;;;;;;;;;;;;;;;;;5074746;28;19912;-74
2024/01/22 01:58:38;;;;;;;;;;;;;;;;;;5058816;28;20661;-72
2024/01/22 02:01:05;;;;;;;;;;;;;;;;;;5079808;28;19913;-74
2024/01/22 02:03:32;;;;;;;;;;;;;;;;;;5059784;28;19947;-74
2024/01/22 02:05:59;;;;;;;;;;;;;;;;;;5061032;28;20463;-73
2024/01/22 02:08:27;;;;;;;;;;;;;;;;;;5054631;28;19961;-73
2024/01/22 02:10:53;;;;;;;;;;;;;;;;;;5073127;28;20003;-74
2024/01/22 02:13:20;;;;;;;;;;;;;;;;;;5056956;28;19918;-74
2024/01/22 02:15:47;;;;;;;;;;;;;;;;;;5066988;28;19912;-73
2024/01/22 02:18:13;;;;;;;;;;;;;;;;;;5072078;28;19914;-74
2024/01/22 02:20:40;;;;;;;;;;;;;;;;;;5063663;28;20371;-74
2024/01/22 02:23:07;;;;;;;;;;;;;;;;;;5092987;28;19919;-74
2024/01/22 02:25:34;;;;;;;;;;;;;;;;;;5092652;28;19912;-74
2024/01/22 02:28:01;;;;;;;;;;;;;;;;;;5081285;28;19923;-74
2024/01/22 02:30:29;;;;;;;;;;;;;;;;;;5084739;28;19912;-75
2024/01/22 02:32:56;;;;;;;;;;;;;;;;;;5073429;28;19917;-75
2024/01/22 02:35:23;;;;;;;;;;;;;;;;;;5076231;28;19912;-74
2024/01/22 02:37:51;;;;;;;;;;;;;;;;;;5073402;28;19915;-74
2024/01/22 02:40:18;;;;;;;;;;;;;;;;;;5058918;28;19954;-74
2024/01/22 02:42:46;;;;;;;;;;;;;;;;;;5070647;28;20521;-75
2024/01/22 02:45:13;;;;;;;;;;;;;;;;;;5059151;28;19912;-75
2024/01/22 02:47:39;;;;;;;;;;;;;;;;;;5069394;28;19923;-74
2024/01/22 02:50:07;;;;;;;;;;;;;;;;;;5059992;28;19919;-76
2024/01/22 02:52:34;;;;;;;;;;;;;;;;;;5070888;28;19949;-76
2024/01/22 02:55:01;;;;;;;;;;;;;;;;;;5057189;28;20391;-76
2024/01/22 02:57:28;;;;;;;;;;;;;;;;;;5052086;28;19911;-76
2024/01/22 02:59:56;;;;;;;;;;;;;;;;;;5069445;28;19918;-75
2024/01/22 03:02:23;;;;;;;;;;;;;;;;;;5055861;28;19989;-75
2024/01/22 03:04:50;;;;;;;;;;;;;;;;;;5068607;28;19938;-75
2024/01/22 03:07:20;;;;;;;;;;;;;;;;;;5071061;28;20334;-76
2024/01/22 03:09:48;;;;;;;;;;;;;;;;;;5053686;28;19919;-76
2024/01/22 03:12:15;;;;;;;;;;;;;;;;;;5066417;28;20446;-76
2024/01/22 03:14:41;;;;;;;;;;;;;;;;;;5052800;28;19908;-75
2024/01/22 03:17:09;;;;;;;;;;;;;;;;;;5054936;28;19919;-75
2024/01/22 03:19:37;;;;;;;;;;;;;;;;;;5061923;28;20387;-74
2024/01/22 03:22:04;;;;;;;;;;;;;;;;;;5057044;28;19947;-75
2024/01/22 03:24:31;;;;;;;;;;;;;;;;;;5070985;28;19930;-75
2024/01/22 03:26:58;;;;;;;;;;;;;;;;;;5090852;27;20402;-75
2024/01/22 03:29:25;;;;;;;;;;;;;;;;;;5071521;28;20361;-75
2024/01/22 03:31:53;;;;;;;;;;;;;;;;;;5085527;28;20561;-74
2024/01/22 03:34:20;;;;;;;;;;;;;;;;;;5083734;27;19912;-74
2024/01/22 03:36:46;;;;;;;;;;;;;;;;;;5087356;27;19919;-74
2024/01/22 03:39:22;;;;;;;;;;;;;;;;;;5079576;28;19916;-82
2024/01/22 03:41:51;;;;;;;;;;;;;;;;;;5079013;28;20348;-83
2024/01/22 03:44:18;;;;;;;;;;;;;;;;;;5077912;27;19912;-83
2024/01/22 03:46:46;;;;;;;;;;;;;;;;;;5080983;28;19915;-83
2024/01/22 03:49:16;;;;;;;;;;;;;;;;;;5080574;28;19945;-82
2024/01/22 03:51:44;;;;;;;;;;;;;;;;;;5091455;28;19955;-83
2024/01/22 03:54:11;;;;;;;;;;;;;;;;;;5075370;28;20517;-82
2024/01/22 03:56:38;;;;;;;;;;;;;;;;;;5091074;28;23691;-83
2024/01/22 03:59:05;;;;;;;;;;;;;;;;;;5095127;28;19915;-83
2024/01/22 04:01:31;;;;;;;;;;;;;;;;;;5078422;28;19933;-82
2024/01/22 04:03:58;;;;;;;;;;;;;;;;;;5079681;28;20395;-82
2024/01/22 04:06:26;;;;;;;;;;;;;;;;;;5078196;28;19955;-82
2024/01/22 04:08:53;;;;;;;;;;;;;;;;;;5092659;28;19911;-82
2024/01/22 04:11:24;;;;;;;;;;;;;;;;;;5096177;28;20401;-84
2024/01/22 04:13:51;;;;;;;;;;;;;;;;;;5080971;28;19912;-83
2024/01/22 04:16:19;;;;;;;;;;;;;;;;;;5093817;28;19916;-82
2024/01/22 04:18:45;;;;;;;;;;;;;;;;;;5075621;28;19915;-82
2024/01/22 04:21:12;;;;;;;;;;;;;;;;;;5099367;28;19919;-83
2024/01/22 04:23:39;;;;;;;;;;;;;;;;;;5094216;27;20300;-82
2024/01/22 04:26:06;;;;;;;;;;;;;;;;;;5074721;28;19908;-82
2024/01/22 04:28:33;;;;;;;;;;;;;;;;;;5093677;28;20576;-83
2024/01/22 04:31:00;;;;;;;;;;;;;;;;;;5076919;28;19954;-81
2024/01/22 04:33:29;;;;;;;;;;;;;;;;;;5092090;27;19911;-82
2024/01/22 04:35:59;;;;;;;;;;;;;;;;;;5097981;28;19922;-82
2024/01/22 04:38:26;;;;;;;;;;;;;;;;;;5095962;28;19961;-82
2024/01/22 04:40:55;;;;;;;;;;;;;;;;;;5079717;28;20638;-82
2024/01/22 04:43:23;;;;;;;;;;;;;;;;;;5091149;28;20002;-82
2024/01/22 04:45:51;;;;;;;;;;;;;;;;;;5090100;28;19918;-84
2024/01/22 04:48:18;;;;;;;;;;;;;;;;;;5092596;28;20482;-82
2024/01/22 04:50:45;;;;;;;;;;;;;;;;;;5096846;28;19911;-82
2024/01/22 04:53:12;;;;;;;;;;;;;;;;;;5090615;28;20128;-82
2024/01/22 04:55:39;;;;;;;;;;;;;;;;;;5090805;28;20388;-82
2024/01/22 04:58:05;;;;;;;;;;;;;;;;;;5094878;28;19914;-83
2024/01/22 05:00:32;;;;;;;;;;;;;;;;;;5092522;28;19912;-83
2024/01/22 05:03:04;;;;;;;;;;;;;;;;;;5092191;28;19915;-83
2024/01/22 05:05:31;;;;;;;;;;;;;;;;;;5093093;27;19988;-83
2024/01/22 05:07:58;;;;;;;;;;;;;;;;;;5095529;27;19950;-82
2024/01/22 05:10:26;;;;;;;;;;;;;;;;;;5083656;27;20391;-83
2024/01/22 05:13:13;;;;;;;;;;;;;;;;;;5088058;28;19922;-83
2024/01/22 05:15:44;;;;;;;;;;;;;;;;;;5087348;28;19912;-83
2024/01/22 05:18:13;;;;;;;;;;;;;;;;;;5093090;28;19916;-84
2024/01/22 05:20:40;;;;;;;;;;;;;;;;;;5074316;28;19959;-84
2024/01/22 05:23:07;;;;;;;;;;;;;;;;;;5091209;27;19915;-83
2024/01/22 05:25:34;;;;;;;;;;;;;;;;;;5092544;28;19912;-82
2024/01/22 05:28:01;;;;;;;;;;;;;;;;;;5091476;28;20091;-82
2024/01/22 05:30:28;;;;;;;;;;;;;;;;;;5094915;28;19912;-83
2024/01/22 05:32:56;;;;;;;;;;;;;;;;;;5082270;28;19942;-82
2024/01/22 05:35:21;;;;;;;;;;;;;;;;;;5076623;28;19938;-82
2024/01/22 05:37:50;;;;;;;;;;;;;;;;;;5080714;28;20406;-82
2024/01/22 05:40:18;;;;;;;;;;;;;;;;;;5091919;28;19912;-83
2024/01/22 05:42:46;;;;;;;;;;;;;;;;;;5090529;28;19918;-83
2024/01/22 05:45:33;;;;;;;;;;;;;;;;;;5089765;28;19916;-82
2024/01/22 05:48:00;;;;;;;;;;;;;;;;;;5090657;27;19961;-82
2024/01/22 05:50:28;;;;;;;;;;;;;;;;;;5095161;28;19916;-82
2024/01/22 05:52:54;;;;;;;;;;;;;;;;;;5092183;28;19911;-82
2024/01/22 05:55:22;;;;;;;;;;;;;;;;;;5092906;28;19919;-83
2024/01/22 05:57:49;;;;;;;;;;;;;;;;;;5092999;28;20719;-82
2024/01/22 06:00:18;;;;;;;;;;;;;;;;;;5093429;28;19915;-82
2024/01/22 06:02:48;;;;;;;;;;;;;;;;;;5088814;27;19923;-83
2024/01/22 06:05:14;;;;;;;;;;;;;;;;;;5074119;28;19920;-82
2024/01/22 06:07:40;;;;;;;;;;;;;;;;;;5074321;28;19920;-83
2024/01/22 06:10:08;;;;;;;;;;;;;;;;;;5076559;28;20388;-83
2024/01/22 06:12:38;;;;;;;;;;;;;;;;;;5076703;28;19968;-83
2024/01/22 06:15:05;;;;;;;;;;;;;;;;;;5075972;28;20456;-83
2024/01/22 06:17:33;;;;;;;;;;;;;;;;;;5071564;28;20034;-83
2024/01/22 06:20:00;;;;;;;;;;;;;;;;;;5075869;28;20065;-82
2024/01/22 06:22:26;;;;;;;;;;;;;;;;;;5074865;28;19912;-82
2024/01/22 06:24:54;;;;;;;;;;;;;;;;;;5077060;28;19984;-83
2024/01/22 06:27:21;;;;;;;;;;;;;;;;;;5071038;28;19923;-82
2024/01/22 06:29:49;;;;;;;;;;;;;;;;;;5077994;28;20283;-82
2024/01/22 06:32:18;;;;;;;;;;;;;;;;;;5075531;28;20068;-82
2024/01/22 06:34:46;;;;;;;;;;;;;;;;;;5076131;28;19919;-82
2024/01/22 06:37:15;;;;;;;;;;;;;;;;;;5074718;28;19938;-82
2024/01/22 06:39:42;;;;;;;;;;;;;;;;;;5071263;28;19918;-82
2024/01/22 06:42:08;;;;;;;;;;;;;;;;;;5076221;28;19923;-82
2024/01/22 06:44:35;;;;;;;;;;;;;;;;;;5076919;28;19911;-82
2024/01/22 06:47:03;;;;;;;;;;;;;;;;;;5074608;28;19920;-81
2024/01/22 06:49:31;;;;;;;;;;;;;;;;;;5073360;28;20007;-82
2024/01/22 06:51:59;;;;;;;;;;;;;;;;;;5075567;28;19920;-82
2024/01/22 06:54:26;;;;;;;;;;;;;;;;;;5072764;28;19915;-81
2024/01/22 06:56:56;;;;;;;;;;;;;;;;;;5076481;28;20002;-82
2024/01/22 06:59:23;;;;;;;;;;;;;;;;;;5071646;28;20023;-82
2024/01/22 07:01:52;;;;;;;;;;;;;;;;;;5074720;28;20423;-82
2024/01/22 07:04:21;;;;;;;;;;;;;;;;;;5068470;28;20112;-83
2024/01/22 07:06:48;;;;;;;;;;;;;;;;;;5074336;28;19924;-82
2024/01/22 07:09:16;;;;;;;;;;;;;;;;;;5074584;28;19912;-82
2024/01/22 07:11:43;;;;;;;;;;;;;;;;;;5069637;28;19912;-82
2024/01/22 07:14:30;;;;;;;;;;;;;;;;;;5072840;28;19957;-82
2024/01/22 07:16:57;;;;;;;;;;;;;;;;;;5073779;28;19969;-82
2024/01/22 07:19:25;;;;;;;;;;;;;;;;;;5069847;28;20636;-82
2024/01/22 07:21:52;;;;;;;;;;;;;;;;;;5071577;28;20683;-82
2024/01/22 07:24:20;;;;;;;;;;;;;;;;;;5071291;28;20907;-82
2024/01/22 07:26:48;;;;;;;;;;;;;;;;;;5072891;28;19958;-82
2024/01/22 07:29:15;;;;;;;;;;;;;;;;;;5071571;28;19912;-82
2024/01/22 07:31:42;;;;;;;;;;;;;;;;;;5067006;28;19919;-82
2024/01/22 07:34:08;;;;;;;;;;;;;;;;;;5068938;28;20567;-82
2024/01/22 07:36:35;;;;;;;;;;;;;;;;;;5069721;28;19912;-82
2024/01/22 07:39:02;;;;;;;;;;;;;;;;;;5070242;28;19919;-82
2024/01/22 07:41:48;;;;;;;;;;;;;;;;;;5072899;28;19911;-83
2024/01/22 07:44:15;;;;;;;;;;;;;;;;;;5075537;28;19934;-82
2024/01/22 07:46:44;;;;;;;;;;;;;;;;;;5069983;28;19916;-83
2024/01/22 07:49:21;;;;;;;;;;;;;;;;;;5068763;28;20447;-83
2024/01/22 07:51:58;;;;;;;;;;;;;;;;;;5073768;28;19908;-83
2024/01/22 07:54:25;;;;;;;;;;;;;;;;;;5070722;28;19989;-83
2024/01/22 07:56:51;;;;;;;;;;;;;;;;;;5074301;28;19946;-82
2024/01/22 07:59:18;;;;;;;;;;;;;;;;;;5072356;28;19920;-82
2024/01/22 08:01:45;;;;;;;;;;;;;;;;;;5073975;28;19912;-82
2024/01/22 08:04:12;;;;;;;;;;;;;;;;;;5072726;28;19920;-83
2024/01/22 08:06:39;;;;;;;;;;;;;;;;;;5068090;28;19967;-82
2024/01/22 08:09:07;;;;;;;;;;;;;;;;;;5068494;28;19938;-82
2024/01/22 08:11:35;;;;;;;;;;;;;;;;;;5072143;28;19912;-82
2024/01/22 08:14:02;;;;;;;;;;;;;;;;;;5074452;28;19924;-82
2024/01/22 08:16:29;;;;;;;;;;;;;;;;;;5076053;28;19957;-83
2024/01/22 08:18:57;;;;;;;;;;;;;;;;;;5071147;28;20020;-82
2024/01/22 08:21:25;;;;;;;;;;;;;;;;;;5071042;28;20481;-84
2024/01/22 08:23:52;;;;;;;;;;;;;;;;;;5072264;28;19919;-82
2024/01/22 08:26:18;;;;;;;;;;;;;;;;;;5068811;28;20742;-82
2024/01/22 08:28:45;;;;;;;;;;;;;;;;;;5070743;28;19912;-84
2024/01/22 08:31:12;;;;;;;;;;;;;;;;;;5070721;28;19916;-83
2024/01/22 08:33:40;;;;;;;;;;;;;;;;;;5069224;28;19919;-83
2024/01/22 08:36:06;;;;;;;;;;;;;;;;;;5069967;28;20462;-81
2024/01/22 08:38:35;;;;;;;;;;;;;;;;;;5069367;28;19911;-81
2024/01/22 08:41:26;;;;;;;;;;;;;;;;;;5062130;28;19945;-82
2024/01/22 08:43:53;;;;;;;;;;;;;;;;;;5070617;28;19962;-83
2024/01/22 08:46:20;;;;;;;;;;;;;;;;;;5064365;28;19916;-83
2024/01/22 08:48:48;;;;;;;;;;;;;;;;;;5076888;28;19947;-83
2024/01/22 08:51:16;;;;;;;;;;;;;;;;;;5068421;28;19912;-81
2024/01/22 08:53:43;;;;;;;;;;;;;;;;;;5061484;28;19991;-81
2024/01/22 08:56:09;;;;;;;;;;;;;;;;;;5059398;28;20062;-82
2024/01/22 08:58:38;;;;;;;;;;;;;;;;;;5060998;28;21907;-81
2024/01/22 09:01:08;;;;;;;;;;;;;;;;;;5060095;28;19999;-81
2024/01/22 09:03:35;;;;;;;;;;;;;;;;;;5066532;28;19916;-81
2024/01/22 09:06:06;;;;;;;;;;;;;;;;;;5070492;28;19951;-81
2024/01/22 09:08:34;;;;;;;;;;;;;;;;;;5062539;28;19948;-80
2024/01/22 09:11:02;;;;;;;;;;;;;;;;;;5065208;28;20541;-80
2024/01/22 09:13:29;;;;;;;;;;;;;;;;;;5062260;28;19980;-81
2024/01/22 09:15:57;;;;;;;;;;;;;;;;;;5068825;28;19912;-80
2024/01/22 09:18:23;;;;;;;;;;;;;;;;;;5065971;28;19934;-83
2024/01/22 09:20:50;;;;;;;;;;;;;;;;;;5066333;28;19924;-82
2024/01/22 09:23:17;;;;;;;;;;;;;;;;;;5068532;28;19965;-82
2024/01/22 09:25:44;;;;;;;;;;;;;;;;;;5067627;28;19931;-82
2024/01/22 09:28:10;;;;;;;;;;;;;;;;;;5068177;28;19985;-82
2024/01/22 09:30:38;;;;;;;;;;;;;;;;;;5065937;28;22816;-82
2024/01/22 09:33:05;;;;;;;;;;;;;;;;;;5069420;28;19973;-82
2024/01/22 09:35:32;;;;;;;;;;;;;;;;;;5067576;28;19922;-82
2024/01/22 09:38:01;;;;;;;;;;;;;;;;;;5066824;28;20003;-83
2024/01/22 09:40:37;;;;;;;;;;;;;;;;;;5067190;28;19968;-83
2024/01/22 09:43:04;;;;;;;;;;;;;;;;;;5070340;28;19912;-81
2024/01/22 09:45:34;;;;;;;;;;;;;;;;;;5062828;28;20422;-82
2024/01/22 09:48:02;;;;;;;;;;;;;;;;;;5069252;28;19920;-82
2024/01/22 09:50:29;;;;;;;;;;;;;;;;;;5068823;28;19920;-81
2024/01/22 09:53:06;;;;;;;;;;;;;;;;;;5071391;28;20026;-82
2024/01/22 09:55:33;;;;;;;;;;;;;;;;;;5067547;28;19912;-82
2024/01/22 09:58:00;;;;;;;;;;;;;;;;;;5064102;28;20809;-81
2024/01/22 10:00:27;;;;;;;;;;;;;;;;;;5064887;28;19911;-81
2024/01/22 10:02:55;;;;;;;;;;;;;;;;;;5060322;28;19915;-81
2024/01/22 10:05:31;;;;;;;;;;;;;;;;;;5065237;28;20802;-81
2024/01/22 10:07:58;;;;;;;;;;;;;;;;;;5067787;28;20808;-84
2024/01/22 10:10:24;;;;;;;;;;;;;;;;;;5067617;28;19957;-82
2024/01/22 10:12:52;;;;;;;;;;;;;;;;;;5072504;28;20317;-83
2024/01/22 10:15:19;;;;;;;;;;;;;;;;;;5069435;28;20010;-81
2024/01/22 10:17:48;;;;;;;;;;;;;;;;;;5071614;28;20042;-82
2024/01/22 10:20:35;;;;;;;;;;;;;;;;;;5066263;28;20898;-82
2024/01/22 10:23:03;;;;;;;;;;;;;;;;;;5070844;28;19925;-83
2024/01/22 10:25:30;;;;;;;;;;;;;;;;;;5071400;28;19911;-82
2024/01/22 10:27:58;;;;;;;;;;;;;;;;;;5074418;28;19916;-83
2024/01/22 10:30:25;;;;;;;;;;;;;;;;;;5069709;28;19989;-83
2024/01/22 10:32:52;;;;;;;;;;;;;;;;;;5072935;28;19916;-82
2024/01/22 10:35:18;;;;;;;;;;;;;;;;;;5070073;28;19908;-83
2024/01/22 10:37:46;;;;;;;;;;;;;;;;;;5075184;28;19912;-82
2024/01/22 10:40:14;;;;;;;;;;;;;;;;;;5073625;28;19977;-82
2024/01/22 10:42:44;;;;;;;;;;;;;;;;;;5070407;28;20432;-83
2024/01/22 10:45:11;;;;;;;;;;;;;;;;;;5075186;28;19919;-83
2024/01/22 10:47:42;;;;;;;;;;;;;;;;;;5071980;28;19916;-83
2024/01/22 10:50:11;;;;;;;;;;;;;;;;;;5073567;28;19919;-83
2024/01/22 10:52:37;;;;;;;;;;;;;;;;;;5073023;28;19916;-81
2024/01/22 10:55:03;;;;;;;;;;;;;;;;;;5074803;28;19912;-80
2024/01/22 10:57:30;;;;;;;;;;;;;;;;;;5075456;28;19912;-80
2024/01/22 10:59:58;;;;;;;;;;;;;;;;;;5075437;28;19920;-81
2024/01/22 11:02:23;;;;;;;;;;;;;;;;;;5072060;28;19986;-82
2024/01/22 11:04:51;;;;;;;;;;;;;;;;;;5072140;28;20447;-81
2024/01/22 11:07:19;;;;;;;;;;;;;;;;;;5070030;28;20477;-80
2024/01/22 11:09:48;;;;;;;;;;;;;;;;;;5075844;28;20563;-81
2024/01/22 11:12:16;;;;;;;;;;;;;;;;;;5076081;28;20698;-81
2024/01/22 11:14:44;;;;;;;;;;;;;;;;;;5075232;28;19912;-82
2024/01/22 11:17:11;;;;;;;;;;;;;;;;;;5074500;28;20326;-82
2024/01/22 11:19:39;;;;;;;;;;;;;;;;;;5072672;28;19923;-81
2024/01/22 11:22:08;;;;;;;;;;;;;;;;;;5079055;28;19908;-83
2024/01/22 11:24:45;;;;;;;;;;;;;;;;;;5076329;28;19912;-83
2024/01/22 11:27:12;;;;;;;;;;;;;;;;;;5077972;28;19923;-84
2024/01/22 11:29:39;;;;;;;;;;;;;;;;;;5074922;28;19916;-82
2024/01/22 11:32:06;;;;;;;;;;;;;;;;;;5082902;28;20648;-82
2024/01/22 11:34:33;;;;;;;;;;;;;;;;;;5081353;28;19915;-82
2024/01/22 11:37:04;;;;;;;;;;;;;;;;;;5082974;28;20504;-82
2024/01/22 11:39:31;;;;;;;;;;;;;;;;;;5081896;28;19912;-82
2024/01/22 11:41:58;;;;;;;;;;;;;;;;;;5084669;28;20010;-83
2024/01/22 11:44:27;;;;;;;;;;;;;;;;;;5085217;28;19962;-83
2024/01/22 11:46:55;;;;;;;;;;;;;;;;;;5100709;28;20002;-82
2024/01/22 11:49:22;;;;;;;;;;;;;;;;;;5096768;28;19968;-82
2024/01/22 11:51:48;;;;;;;;;;;;;;;;;;5102045;28;19923;-82
2024/01/22 11:54:17;;;;;;;;;;;;;;;;;;5099938;28;19912;-83
2024/01/22 11:56:45;;;;;;;;;;;;;;;;;;5097964;28;19909;-82
2024/01/22 11:59:32;;;;;;;;;;;;;;;;;;5094203;28;19920;-83
2024/01/22 12:01:59;;;;;;;;;;;;;;;;;;5090244;28;19911;-83
2024/01/22 12:04:26;;;;;;;;;;;;;;;;;;5087146;28;19920;-82
2024/01/22 12:06:54;;;;;;;;;;;;;;;;;;5088208;28;20266;-82
2024/01/22 12:09:21;;;;;;;;;;;;;;;;;;5084824;28;20396;-82
2024/01/22 12:11:48;;;;;;;;;;;;;;;;;;5090266;28;19923;-82
2024/01/22 12:14:15;;;;;;;;;;;;;;;;;;5080083;28;19986;-83
2024/01/22 12:16:43;;;;;;;;;;;;;;;;;;5078239;28;19912;-82
2024/01/22 12:19:10;;;;;;;;;;;;;;;;;;5079222;28;20570;-80
2024/01/22 12:21:37;;;;;;;;;;;;;;;;;;5087339;28;19934;-82
2024/01/22 12:24:05;;;;;;;;;;;;;;;;;;5095371;28;19907;-83
2024/01/22 12:26:32;;;;;;;;;;;;;;;;;;5084138;28;19923;-83
2024/01/22 12:28:59;;;;;;;;;;;;;;;;;;5089540;28;19924;-82
2024/01/22 12:31:26;;;;;;;;;;;;;;;;;;5078467;28;20457;-83
2024/01/22 12:33:54;;;;;;;;;;;;;;;;;;5083256;28;19916;-83
2024/01/22 12:36:23;;;;;;;;;;;;;;;;;;5083248;28;19920;-83
2024/01/22 12:38:49;;;;;;;;;;;;;;;;;;5085731;28;19919;-83
2024/01/22 12:41:16;;;;;;;;;;;;;;;;;;5080634;28;20022;-82
2024/01/22 12:43:43;;;;;;;;;;;;;;;;;;5075209;28;19912;-83
2024/01/22 12:46:15;;;;;;;;;;;;;;;;;;5074180;28;19958;-83
2024/01/22 12:48:46;;;;;;;;;;;;;;;;;;5074732;28;19916;-83
2024/01/22 12:51:12;;;;;;;;;;;;;;;;;;5073867;28;19923;-83
2024/01/22 12:53:39;;;;;;;;;;;;;;;;;;5070367;28;19950;-82
2024/01/22 12:56:06;;;;;;;;;;;;;;;;;;5073367;28;19912;-82
2024/01/22 12:58:34;;;;;;;;;;;;;;;;;;5064940;28;19957;-82
2024/01/22 13:01:01;;;;;;;;;;;;;;;;;;5068019;28;19912;-82
2024/01/22 13:03:28;;;;;;;;;;;;;;;;;;5064905;28;19955;-82
2024/01/22 13:05:55;;;;;;;;;;;;;;;;;;5074927;28;19930;-81
2024/01/22 13:08:21;;;;;;;;;;;;;;;;;;5080145;28;19973;-81
2024/01/22 13:10:48;;;;;;;;;;;;;;;;;;5074700;28;19961;-82
2024/01/22 13:13:16;;;;;;;;;;;;;;;;;;5072014;28;20284;-81
2024/01/22 13:15:43;;;;;;;;;;;;;;;;;;5073960;28;20053;-82
2024/01/22 13:18:10;;;;;;;;;;;;;;;;;;5074165;28;19969;-82
2024/01/22 13:20:37;;;;;;;;;;;;;;;;;;5070230;28;20457;-81
2024/01/22 13:23:03;;;;;;;;;;;;;;;;;;5069670;28;19915;-82
2024/01/22 13:25:31;;;;;;;;;;;;;;;;;;5066345;28;19923;-82
2024/01/22 13:27:58;;;;;;;;;;;;;;;;;;5071667;28;19981;-83
2024/01/22 13:30:26;;;;;;;;;;;;;;;;;;5073972;28;19955;-83
2024/01/22 13:32:52;;;;;;;;;;;;;;;;;;5066516;28;19918;-82
2024/01/22 13:35:21;;;;;;;;;;;;;;;;;;5068507;28;19908;-82
2024/01/22 13:37:48;;;;;;;;;;;;;;;;;;5068939;28;19966;-83
2024/01/22 13:40:16;;;;;;;;;;;;;;;;;;5069136;28;19912;-83
2024/01/22 13:42:43;;;;;;;;;;;;;;;;;;5067578;28;19923;-83
2024/01/22 13:45:10;;;;;;;;;;;;;;;;;;5071081;28;19923;-82
2024/01/22 13:47:37;;;;;;;;;;;;;;;;;;5068958;28;19927;-82
2024/01/22 13:50:04;;;;;;;;;;;;;;;;;;5070530;28;19946;-82
2024/01/22 13:52:31;;;;;;;;;;;;;;;;;;5070712;28;19912;-82
2024/01/22 13:54:58;;;;;;;;;;;;;;;;;;5075860;28;19912;-83
2024/01/22 13:57:25;;;;;;;;;;;;;;;;;;5076216;28;19986;-83
2024/01/22 13:59:52;;;;;;;;;;;;;;;;;;5074898;28;19915;-83
2024/01/22 14:02:18;;;;;;;;;;;;;;;;;;5072566;28;20026;-83
2024/01/22 14:04:45;;;;;;;;;;;;;;;;;;5069747;28;19940;-82
2024/01/22 14:07:13;;;;;;;;;;;;;;;;;;5067709;28;19981;-81
2024/01/22 14:09:40;;;;;;;;;;;;;;;;;;5063886;28;20380;-81
2024/01/22 14:12:06;;;;;;;;;;;;;;;;;;5070095;28;19911;-81
2024/01/22 14:14:35;;;;;;;;;;;;;;;;;;5067673;28;20027;-81
2024/01/22 14:17:02;;;;;;;;;;;;;;;;;;5070684;28;21326;-82
2024/01/22 14:19:38;;;;;;;;;;;;;;;;;;5063855;28;21396;-84
2024/01/22 14:22:06;;;;;;;;;;;;;;;;;;5067627;28;19916;-82
2024/01/22 14:24:52;;;;;;;;;;;;;;;;;;5069083;28;19912;-82
2024/01/22 14:27:23;;;;;;;;;;;;;;;;;;5067258;28;19919;-82
2024/01/22 14:29:50;;;;;;;;;;;;;;;;;;5070840;28;19919;-83
2024/01/22 14:32:17;;;;;;;;;;;;;;;;;;5071319;28;19908;-83
2024/01/22 14:34:43;;;;;;;;;;;;;;;;;;5071289;28;19919;-82
2024/01/22 14:37:09;;;;;;;;;;;;;;;;;;5070700;28;19911;-81
2024/01/22 14:39:35;;;;;;;;;;;;;;;;;;5066167;28;19915;-82
2024/01/22 14:42:02;;;;;;;;;;;;;;;;;;5069548;28;19915;-83
2024/01/22 14:44:29;;;;;;;;;;;;;;;;;;5067503;28;20578;-80
2024/01/22 14:46:56;;;;;;;;;;;;;;;;;;5069484;28;19919;-84
2024/01/22 14:49:24;;;;;;;;;;;;;;;;;;5068240;28;20487;-81
2024/01/22 14:51:51;;;;;;;;;;;;;;;;;;5070458;28;20273;-80
2024/01/22 14:54:18;;;;;;;;;;;;;;;;;;5068256;28;19979;-78
2024/01/22 14:56:46;;;;;;;;;;;;;;;;;;5065095;28;19912;-79
2024/01/22 14:59:13;;;;;;;;;;;;;;;;;;5069519;28;19908;-79
2024/01/22 15:01:40;;;;;;;;;;;;;;;;;;5065307;28;19916;-80
2024/01/22 15:04:08;;;;;;;;;;;;;;;;;;5068577;28;19920;-79
2024/01/22 15:06:34;;;;;;;;;;;;;;;;;;5066670;28;19916;-81
2024/01/22 15:09:01;;;;;;;;;;;;;;;;;;5068293;28;20021;-82
2024/01/22 15:11:26;;;;;;;;;;;;;;;;;;5066618;28;19973;-80
2024/01/22 15:13:52;;;;;;;;;;;;;;;;;;5068801;28;21008;-80
2024/01/22 15:16:19;;;;;;;;;;;;;;;;;;5065749;28;19912;-81
2024/01/22 15:18:45;;;;;;;;;;;;;;;;;;5070110;28;19995;-83
2024/01/22 15:21:12;;;;;;;;;;;;;;;;;;5067105;28;19912;-82
2024/01/22 15:23:40;;;;;;;;;;;;;;;;;;5066539;28;20892;-82
2024/01/22 15:26:07;;;;;;;;;;;;;;;;;;5066240;28;20010;-82
2024/01/22 15:28:34;;;;;;;;;;;;;;;;;;5066560;28;20010;-79
2024/01/22 15:31:01;;;;;;;;;;;;;;;;;;5069680;28;19912;-81
2024/01/22 15:33:28;;;;;;;;;;;;;;;;;;5065827;28;19916;-82
2024/01/22 15:35:55;;;;;;;;;;;;;;;;;;5069473;28;19961;-81
2024/01/22 15:38:24;;;;;;;;;;;;;;;;;;5063780;28;20482;-81
2024/01/22 15:40:55;;;;;;;;;;;;;;;;;;5066916;28;20319;-80
2024/01/22 15:43:22;;;;;;;;;;;;;;;;;;5066320;28;19918;-82
2024/01/22 15:45:48;;;;;;;;;;;;;;;;;;5069057;28;20660;-81
2024/01/22 15:48:15;;;;;;;;;;;;;;;;;;5068321;28;19916;-82
2024/01/22 15:50:42;;;;;;;;;;;;;;;;;;5067994;28;20586;-82
2024/01/22 15:53:09;;;;;;;;;;;;;;;;;;5070900;28;20303;-80
2024/01/22 15:55:37;;;;;;;;;;;;;;;;;;5068425;28;19912;-81
2024/01/22 15:58:07;;;;;;;;;;;;;;;;;;5067414;28;20099;-81
2024/01/22 16:00:34;;;;;;;;;;;;;;;;;;5061318;28;19912;-80
2024/01/22 16:03:01;;;;;;;;;;;;;;;;;;5081920;28;19912;-82
2024/01/22 16:05:28;;;;;;;;;;;;;;;;;;5064333;28;19967;-83
2024/01/22 16:07:56;;;;;;;;;;;;;;;;;;5065860;28;20267;-81
2024/01/22 16:10:23;;;;;;;;;;;;;;;;;;5064242;28;19916;-80
2024/01/22 16:12:49;;;;;;;;;;;;;;;;;;5064345;28;19966;-82
2024/01/22 16:15:16;;;;;;;;;;;;;;;;;;5067833;28;20034;-81
2024/01/22 16:17:43;;;;;;;;;;;;;;;;;;5060343;28;19911;-82
2024/01/22 16:20:11;;;;;;;;;;;;;;;;;;5066027;28;20006;-82
2024/01/22 16:22:41;;;;;;;;;;;;;;;;;;5062845;28;20349;-81
2024/01/22 16:25:09;;;;;;;;;;;;;;;;;;5066654;28;19934;-81
2024/01/22 16:27:34;;;;;;;;;;;;;;;;;;5063880;28;19921;-84
2024/01/22 16:30:02;;;;;;;;;;;;;;;;;;5065821;28;20685;-82
2024/01/22 16:32:29;;;;;;;;;;;;;;;;;;5061613;28;20423;-81
2024/01/22 16:34:55;;;;;;;;;;;;;;;;;;5070668;28;19912;-82
2024/01/22 16:37:21;;;;;;;;;;;;;;;;;;5070661;28;19947;-82
2024/01/22 16:39:50;;;;;;;;;;;;;;;;;;5070579;28;19969;-83
2024/01/22 16:42:17;;;;;;;;;;;;;;;;;;5072405;28;19966;-82
2024/01/22 16:44:43;;;;;;;;;;;;;;;;;;5067456;28;19916;-82
2024/01/22 16:47:10;;;;;;;;;;;;;;;;;;5068707;28;19973;-83
2024/01/22 16:49:38;;;;;;;;;;;;;;;;;;5064879;28;19912;-82
2024/01/22 16:52:07;;;;;;;;;;;;;;;;;;5075531;28;19919;-83
2024/01/22 16:54:36;;;;;;;;;;;;;;;;;;5067931;28;19912;-83
2024/01/22 16:57:05;;;;;;;;;;;;;;;;;;5066721;28;19950;-84
2024/01/22 16:59:32;;;;;;;;;;;;;;;;;;5066897;28;19912;-82
2024/01/22 17:01:58;;;;;;;;;;;;;;;;;;5069765;28;19911;-83
2024/01/22 17:04:28;;;;;;;;;;;;;;;;;;5069268;28;19924;-82
2024/01/22 17:06:56;;;;;;;;;;;;;;;;;;5069161;28;20015;-82
2024/01/22 17:09:21;;;;;;;;;;;;;;;;;;5068524;28;19970;-83
2024/01/22 17:11:49;;;;;;;;;;;;;;;;;;5071452;28;19915;-83
2024/01/22 17:14:16;;;;;;;;;;;;;;;;;;5071436;28;19933;-83